Time;durP1;ratioP1;P1;durP2;ratioP2;P2;SDS_P1;SDS_P2;PMS_P1;PMS_P2;Temp;Humidity;BMP_temperature;BMP_pressure;BME280_temperature;BME280_humidity;BME280_pressure;Samples;Min_cycle;Max_cycle;Signal;HPM_P1;HPM_P2
2023/09/16 00:00:47;;;;;;;18.88;12.30;;;;;;;21.29;84.42;95519.63;5065925;28;20229;-76
2023/09/16 00:03:13;;;;;;;17.77;12.10;;;;;;;21.27;84.43;95515.63;5064383;28;20901;-76
2023/09/16 00:05:38;;;;;;;19.60;12.63;;;;;;;21.24;84.46;95516.91;5063976;28;20231;-76
2023/09/16 00:08:05;;;;;;;22.45;12.60;;;;;;;21.31;84.28;95511.38;5065925;28;20287;-76
2023/09/16 00:10:32;;;;;;;20.00;11.82;;;;;;;21.16;84.82;95508.59;5068104;28;20239;-76
2023/09/16 00:12:57;;;;;;;18.98;11.73;;;;;;;21.16;84.83;95517.34;5046415;28;20241;-76
2023/09/16 00:15:23;;;;;;;19.00;12.07;;;;;;;21.22;83.91;95511.03;5050005;28;20354;-76
2023/09/16 00:17:48;;;;;;;16.83;11.63;;;;;;;21.29;83.76;95500.19;5033894;28;20255;-77
2023/09/16 00:20:16;;;;;;;17.80;12.00;;;;;;;21.36;83.44;95503.44;5046583;28;20237;-77
2023/09/16 00:22:43;;;;;;;19.50;11.83;;;;;;;21.32;83.26;95503.16;5061424;28;20233;-77
2023/09/16 00:25:09;;;;;;;16.52;12.07;;;;;;;21.26;83.26;95506.00;5064563;28;20729;-77
2023/09/16 00:27:35;;;;;;;18.48;11.65;;;;;;;21.37;82.71;95513.84;5046253;28;20236;-77
2023/09/16 00:30:00;;;;;;;19.70;11.87;;;;;;;21.27;83.23;95513.75;5042446;28;20641;-77
2023/09/16 00:32:28;;;;;;;16.88;11.35;;;;;;;21.00;84.45;95518.22;5042793;28;20233;-77
2023/09/16 00:34:53;;;;;;;18.95;11.95;;;;;;;21.07;84.32;95516.19;5052759;28;20238;-77
2023/09/16 00:37:19;;;;;;;17.30;11.47;;;;;;;21.13;83.81;95517.06;5070823;28;20236;-77
2023/09/16 00:39:44;;;;;;;19.73;11.75;;;;;;;21.16;83.64;95521.91;5046179;28;20256;-77
2023/09/16 00:42:10;;;;;;;19.80;11.77;;;;;;;21.01;84.51;95522.50;5056062;28;20224;-77
2023/09/16 00:44:36;;;;;;;17.92;11.95;;;;;;;21.07;84.30;95526.84;5054662;28;20225;-77
2023/09/16 00:47:02;;;;;;;20.35;11.80;;;;;;;20.93;84.87;95527.44;5054280;28;20246;-76
2023/09/16 00:49:46;;;;;;;18.60;12.38;;;;;;;20.91;85.06;95533.03;5056478;28;20250;-76
2023/09/16 00:52:11;;;;;;;18.75;11.20;;;;;;;20.96;84.55;95522.44;5072591;28;20319;-76
2023/09/16 00:54:38;;;;;;;16.40;11.63;;;;;;;20.95;84.67;95539.44;5072204;28;20315;-77
2023/09/16 00:57:03;;;;;;;23.17;11.80;;;;;;;20.86;85.12;95527.63;5063570;28;20243;-77
2023/09/16 00:59:29;;;;;;;16.97;11.63;;;;;;;20.93;84.90;95532.75;5054932;28;20220;-76
2023/09/16 01:01:55;;;;;;;18.23;11.57;;;;;;;21.03;84.57;95523.06;5072882;28;20313;-77
2023/09/16 01:04:21;;;;;;;19.08;11.98;;;;;;;21.12;84.18;95516.25;5068750;28;20236;-77
2023/09/16 01:06:51;;;;;;;21.10;11.77;;;;;;;21.11;83.92;95519.19;5087137;28;20233;-77
2023/09/16 01:09:17;;;;;;;16.30;11.50;;;;;;;20.98;84.59;95509.69;5046228;28;20310;-77
2023/09/16 01:11:43;;;;;;;18.30;11.37;;;;;;;21.09;84.14;95508.75;5045984;28;20229;-77
2023/09/16 01:14:11;;;;;;;20.97;11.77;;;;;;;21.05;84.48;95507.66;5053818;28;20923;-77
2023/09/16 01:16:44;;;;;;;16.23;11.40;;;;;;;21.01;84.83;95503.88;5050075;28;20237;-78
2023/09/16 01:19:21;;;;;;;19.57;12.00;;;;;;;21.12;84.43;95491.47;5059331;28;20716;-77
2023/09/16 01:21:48;;;;;;;18.10;11.87;;;;;;;21.07;84.76;95489.56;5072677;28;20318;-76
2023/09/16 01:24:23;;;;;;;18.03;12.17;;;;;;;20.98;85.21;95483.06;5056797;28;20237;-77
2023/09/16 01:26:48;;;;;;;17.07;11.10;;;;;;;20.90;85.29;95491.47;5039699;28;20302;-76
2023/09/16 01:29:14;;;;;;;20.03;11.50;;;;;;;20.98;85.21;95479.59;5075649;28;20236;-77
2023/09/16 01:31:44;;;;;;;17.53;11.23;;;;;;;20.94;85.61;95476.63;5037180;28;20292;-77
2023/09/16 01:34:24;;;;;;;20.43;11.93;;;;;;;20.87;85.95;95480.53;5057859;28;20243;-77
2023/09/16 01:36:52;;;;;;;18.30;11.80;;;;;;;20.87;86.00;95477.88;5055846;28;21056;-76
2023/09/16 01:39:17;;;;;;;20.67;11.60;;;;;;;20.99;85.79;95487.34;5053353;28;20254;-77
2023/09/16 01:41:43;;;;;;;16.60;11.13;;;;;;;20.77;86.83;95491.88;5051070;28;20617;-76
2023/09/16 01:44:08;;;;;;;18.53;11.70;;;;;;;20.61;87.94;95503.41;5071150;28;20283;-77
2023/09/16 01:46:34;;;;;;;19.57;11.93;;;;;;;20.45;89.06;95497.06;5050564;28;20228;-77
2023/09/16 01:48:59;;;;;;;17.77;11.60;;;;;;;20.44;89.41;95507.97;5044574;28;20235;-76
2023/09/16 01:51:25;;;;;;;18.87;11.73;;;;;;;20.46;89.63;95512.00;5049051;28;20936;-76
2023/09/16 01:53:50;;;;;;;18.93;12.10;;;;;;;20.52;89.04;95510.19;5072162;28;20225;-76
2023/09/16 01:56:15;;;;;;;18.10;12.10;;;;;;;20.53;89.01;95519.78;5068092;28;20233;-76
2023/09/16 01:58:41;;;;;;;18.47;12.10;;;;;;;20.56;88.96;95521.94;5034840;28;20231;-76
2023/09/16 02:01:11;;;;;;;18.50;12.07;;;;;;;20.39;90.07;95521.19;5066133;28;20252;-77
2023/09/16 02:03:36;;;;;;;15.83;11.23;;;;;;;20.48;89.68;95525.84;5066052;28;20229;-76
2023/09/16 02:06:02;;;;;;;18.00;12.30;;;;;;;20.52;89.70;95523.47;5050565;28;20230;-76
2023/09/16 02:08:27;;;;;;;18.80;12.37;;;;;;;20.49;89.71;95514.13;5068927;28;20225;-76
2023/09/16 02:10:52;;;;;;;18.60;12.13;;;;;;;20.45;89.81;95517.53;5071171;28;20244;-77
2023/09/16 02:13:18;;;;;;;19.27;11.70;;;;;;;20.53;89.65;95517.94;5071182;28;20235;-76
2023/09/16 02:15:43;;;;;;;20.33;11.80;;;;;;;20.51;89.91;95522.69;5025093;28;20245;-76
2023/09/16 02:18:09;;;;;;;20.07;12.07;;;;;;;20.44;90.04;95523.91;5055841;28;20251;-77
2023/09/16 02:20:34;;;;;;;19.57;11.63;;;;;;;20.43;90.26;95523.09;5071454;28;20281;-77
2023/09/16 02:23:01;;;;;;;17.90;11.57;;;;;;;20.46;90.14;95519.16;5026321;28;20224;-76
2023/09/16 02:25:27;;;;;;;20.47;12.13;;;;;;;20.43;89.95;95520.44;5034050;28;20244;-77
2023/09/16 02:27:52;;;;;;;18.60;11.70;;;;;;;20.48;90.10;95522.38;5067040;28;20674;-77
2023/09/16 02:30:18;;;;;;;17.50;11.93;;;;;;;20.34;91.20;95516.59;5069066;28;20310;-76
2023/09/16 02:32:43;;;;;;;18.13;11.60;;;;;;;20.47;90.17;95518.91;5040539;28;20231;-75
2023/09/16 02:35:09;;;;;;;17.43;11.43;;;;;;;20.25;91.42;95519.94;5071995;28;20270;-76
2023/09/16 02:37:34;;;;;;;15.10;11.57;;;;;;;20.35;90.95;95520.84;5049148;28;20232;-77
2023/09/16 02:40:00;;;;;;;20.90;11.50;;;;;;;20.27;91.38;95528.47;5049281;28;20229;-77
2023/09/16 02:42:25;;;;;;;17.50;11.63;;;;;;;20.20;91.93;95538.44;5054766;28;20262;-76
2023/09/16 02:44:51;;;;;;;18.17;11.87;;;;;;;20.33;91.05;95538.09;5067864;28;20217;-77
2023/09/16 02:47:16;;;;;;;21.97;11.93;;;;;;;20.10;92.29;95539.09;5058059;28;20231;-76
2023/09/16 02:49:42;;;;;;;18.83;11.50;;;;;;;20.17;92.25;95537.88;5071759;28;20216;-76
2023/09/16 02:52:07;;;;;;;19.40;12.27;;;;;;;20.20;91.81;95552.53;5035395;28;20263;-76
2023/09/16 02:54:33;;;;;;;18.90;11.47;;;;;;;20.24;91.35;95555.53;5052131;28;20244;-77
2023/09/16 02:56:58;;;;;;;18.00;12.23;;;;;;;20.20;91.59;95549.88;5060651;28;20316;-76
2023/09/16 02:59:24;;;;;;;20.13;11.90;;;;;;;20.17;92.04;95553.81;5055070;28;20777;-77
2023/09/16 03:01:49;;;;;;;17.27;12.17;;;;;;;20.02;92.83;95548.28;5070369;28;20759;-76
2023/09/16 03:04:15;;;;;;;18.97;12.20;;;;;;;20.04;92.65;95553.34;5050715;28;20232;-76
2023/09/16 03:06:40;;;;;;;16.93;11.70;;;;;;;20.06;92.88;95554.69;5030495;28;20224;-76
2023/09/16 03:09:06;;;;;;;18.53;12.03;;;;;;;20.23;91.54;95549.41;5064734;28;20240;-77
2023/09/16 03:11:31;;;;;;;21.00;11.93;;;;;;;20.31;91.05;95550.84;5069885;28;20262;-77
2023/09/16 03:13:56;;;;;;;19.60;12.33;;;;;;;20.16;92.09;95551.38;5051106;28;20228;-76
2023/09/16 03:16:22;;;;;;;17.70;12.53;;;;;;;20.25;91.94;95549.19;5062168;28;20234;-77
2023/09/16 03:18:49;;;;;;;20.67;12.53;;;;;;;20.26;91.57;95554.25;5050319;28;20228;-77
2023/09/16 03:21:15;;;;;;;18.43;12.13;;;;;;;20.22;91.75;95560.25;5050340;28;20336;-77
2023/09/16 03:23:41;;;;;;;21.00;12.20;;;;;;;20.23;92.34;95556.59;5048080;28;20232;-77
2023/09/16 03:26:07;;;;;;;20.30;12.10;;;;;;;20.12;92.78;95559.06;5057313;28;20260;-77
2023/09/16 03:28:32;;;;;;;19.47;12.07;;;;;;;19.93;93.32;95544.41;5048503;28;20229;-77
2023/09/16 03:30:58;;;;;;;20.57;12.40;;;;;;;19.99;93.84;95547.97;5054328;28;20233;-77
2023/09/16 03:33:23;;;;;;;17.40;12.00;;;;;;;19.84;94.55;95555.69;5047470;28;20232;-77
2023/09/16 03:35:49;;;;;;;18.00;12.03;;;;;;;19.82;94.89;95555.13;5036777;28;20248;-77
2023/09/16 03:38:16;;;;;;;19.57;12.40;;;;;;;20.14;92.95;95562.28;5048252;28;20625;-77
2023/09/16 03:40:42;;;;;;;18.90;12.20;;;;;;;19.98;93.86;95556.97;5062705;28;20725;-76
2023/09/16 03:43:07;;;;;;;17.47;11.83;;;;;;;20.01;93.76;95559.94;5056291;28;20237;-77
2023/09/16 03:45:33;;;;;;;19.03;12.50;;;;;;;20.17;92.84;95561.81;5068900;28;20236;-77
2023/09/16 03:47:58;;;;;;;16.90;11.80;;;;;;;20.23;92.67;95564.56;5047528;28;20236;-77
2023/09/16 03:50:23;;;;;;;19.77;12.50;;;;;;;20.07;93.77;95568.81;5050906;28;20266;-77
2023/09/16 03:52:49;;;;;;;20.70;12.40;;;;;;;20.00;95.24;95579.59;5065093;28;20229;-77
2023/09/16 03:55:15;;;;;;;19.23;12.50;;;;;;;19.91;96.32;95572.28;5052041;28;20239;-76
2023/09/16 03:57:41;;;;;;;20.77;12.00;;;;;;;20.04;95.62;95580.72;5049184;28;20235;-77
2023/09/16 04:00:07;;;;;;;21.47;12.70;;;;;;;20.03;96.65;95576.47;5032667;28;20730;-78
2023/09/16 04:02:33;;;;;;;19.60;12.93;;;;;;;20.10;97.00;95589.59;5037717;28;20233;-78
2023/09/16 04:04:58;;;;;;;21.23;13.50;;;;;;;19.76;100.00;95590.59;5064777;28;20231;-78
2023/09/16 04:07:23;;;;;;;23.77;13.73;;;;;;;19.46;100.00;95594.34;5050908;28;20266;-79
2023/09/16 04:09:49;;;;;;;23.40;13.63;;;;;;;19.59;100.00;95597.75;5043223;28;20293;-79
2023/09/16 04:12:14;;;;;;;21.23;13.90;;;;;;;19.59;100.00;95603.88;5047494;28;20230;-78
2023/09/16 04:14:40;;;;;;;22.40;13.67;;;;;;;19.75;100.00;95613.69;5049219;28;20229;-79
2023/09/16 04:17:05;;;;;;;23.43;14.30;;;;;;;19.54;100.00;95608.28;5031241;28;20224;-78
2023/09/16 04:19:31;;;;;;;23.47;14.60;;;;;;;19.48;100.00;95610.03;5068298;28;20229;-79
2023/09/16 04:21:57;;;;;;;26.13;14.90;;;;;;;19.52;100.00;95616.47;5065902;28;20225;-82
2023/09/16 04:24:22;;;;;;;26.73;14.30;;;;;;;19.60;100.00;95618.78;5066668;28;20365;-82
2023/09/16 04:26:47;;;;;;;29.90;15.30;;;;;;;19.26;100.00;95611.72;5060178;28;20228;-81
2023/09/16 04:29:13;;;;;;;23.03;14.90;;;;;;;19.07;100.00;95615.56;5073686;28;20247;-82
2023/09/16 04:31:38;;;;;;;30.10;15.97;;;;;;;19.10;100.00;95620.41;5072122;28;20239;-83
2023/09/16 04:34:04;;;;;;;26.23;15.37;;;;;;;19.26;100.00;95623.13;5050674;28;20255;-82
2023/09/16 04:36:30;;;;;;;28.07;15.63;;;;;;;19.19;100.00;95605.72;5067999;28;20235;-81
2023/09/16 04:38:55;;;;;;;25.97;15.53;;;;;;;19.02;100.00;95607.50;5085746;28;20229;-81
2023/09/16 04:41:21;;;;;;;30.53;16.77;;;;;;;18.97;100.00;95608.22;5056592;28;20634;-81
2023/09/16 04:43:49;;;;;;;27.40;16.70;;;;;;;19.08;100.00;95611.88;5071862;28;20317;-82
2023/09/16 04:46:16;;;;;;;27.17;16.60;;;;;;;19.26;100.00;95612.53;5056402;28;20354;-81
2023/09/16 04:48:42;;;;;;;26.33;16.23;;;;;;;19.11;100.00;95617.53;5053395;28;20232;-82
2023/09/16 04:51:07;;;;;;;27.10;16.57;;;;;;;19.03;100.00;95625.88;5050504;28;20904;-82
2023/09/16 04:53:33;;;;;;;31.10;16.40;;;;;;;18.85;100.00;95612.75;5064113;28;20239;-83
2023/09/16 04:56:02;;;;;;;26.60;16.47;;;;;;;18.86;100.00;95617.00;5051591;28;20248;-82
2023/09/16 04:58:27;;;;;;;27.87;16.93;;;;;;;18.99;100.00;95615.94;5053362;28;20229;-83
2023/09/16 05:00:53;;;;;;;30.60;16.60;;;;;;;19.09;100.00;95616.94;5063323;28;20233;-83
2023/09/16 05:03:19;;;;;;;29.87;16.50;;;;;;;19.26;100.00;95622.31;5044708;28;20235;-85
2023/09/16 05:05:47;;;;;;;26.87;16.83;;;;;;;19.29;100.00;95622.69;5058014;28;20236;-82
2023/09/16 05:08:13;;;;;;;27.47;18.00;;;;;;;19.11;100.00;95630.78;5045613;28;20232;-83
2023/09/16 05:10:38;;;;;;;25.80;16.33;;;;;;;19.00;100.00;95628.16;5072762;28;20314;-82
2023/09/16 05:13:04;;;;;;;29.87;17.07;;;;;;;19.04;100.00;95632.78;5079431;28;20289;-82
2023/09/16 05:15:29;;;;;;;26.33;16.30;;;;;;;19.18;100.00;95633.31;5074672;28;20737;-81
2023/09/16 05:17:55;;;;;;;27.07;16.97;;;;;;;19.23;100.00;95628.91;5055833;28;20678;-83
2023/09/16 05:20:20;;;;;;;28.93;17.03;;;;;;;19.19;100.00;95621.66;5055719;28;20229;-83
2023/09/16 05:22:47;;;;;;;26.07;17.07;;;;;;;19.27;100.00;95610.69;5039397;28;20232;-82
2023/09/16 05:25:12;;;;;;;28.23;17.33;;;;;;;19.33;100.00;95615.03;5059664;28;20236;-83
2023/09/16 05:27:38;;;;;;;27.37;17.53;;;;;;;19.02;100.00;95626.09;5064846;28;20248;-83
2023/09/16 05:30:04;;;;;;;30.20;17.47;;;;;;;19.21;100.00;95638.16;5059775;28;20233;-84
2023/09/16 05:32:31;;;;;;;30.53;17.60;;;;;;;19.32;100.00;95642.63;5066463;28;20233;-82
2023/09/16 05:34:56;;;;;;;32.30;17.97;;;;;;;19.48;100.00;95636.59;5062240;28;20240;-83
2023/09/16 05:37:22;;;;;;;31.47;18.20;;;;;;;19.49;100.00;95643.50;5065160;28;20224;-84
2023/09/16 05:39:47;;;;;;;29.20;17.83;;;;;;;19.28;100.00;95641.47;5056996;28;20221;-83
2023/09/16 05:42:13;;;;;;;27.63;17.87;;;;;;;19.27;100.00;95651.28;5073634;28;20333;-83
2023/09/16 05:44:39;;;;;;;34.47;19.47;;;;;;;19.25;100.00;95641.97;5040676;28;20234;-82
2023/09/16 05:47:05;;;;;;;32.17;19.07;;;;;;;18.96;100.00;95643.75;5053590;28;20242;-82
2023/09/16 05:49:30;;;;;;;33.00;18.77;;;;;;;19.11;100.00;95643.25;5049764;28;20240;-81
2023/09/16 05:51:56;;;;;;;36.00;19.77;;;;;;;19.25;100.00;95641.97;5039682;28;20232;-81
2023/09/16 05:54:21;;;;;;;32.77;19.23;;;;;;;19.26;100.00;95646.22;5073906;28;20229;-81
2023/09/16 05:56:47;;;;;;;34.23;19.13;;;;;;;19.21;100.00;95646.94;5048490;28;20320;-80
2023/09/16 05:59:14;;;;;;;38.37;20.33;;;;;;;19.13;100.00;95639.31;5071429;28;20318;-81
2023/09/16 06:01:39;;;;;;;33.70;19.47;;;;;;;19.24;100.00;95649.13;5062293;28;20775;-81
2023/09/16 06:04:05;;;;;;;34.23;19.93;;;;;;;19.20;100.00;95649.81;5026837;28;20233;-82
2023/09/16 06:06:30;;;;;;;33.03;19.57;;;;;;;19.19;100.00;95653.50;5057651;28;20272;-80
2023/09/16 06:08:56;;;;;;;36.13;19.77;;;;;;;19.33;100.00;95658.31;5072648;28;20767;-80
2023/09/16 06:11:26;;;;;;;31.73;19.17;;;;;;;19.27;100.00;95655.81;5068865;28;20258;-81
2023/09/16 06:13:52;;;;;;;31.93;19.80;;;;;;;19.34;100.00;95656.47;5066403;28;20594;-80
2023/09/16 06:16:18;;;;;;;36.40;19.87;;;;;;;19.32;100.00;95659.34;5066593;28;20217;-81
2023/09/16 06:18:43;;;;;;;33.40;19.77;;;;;;;19.17;100.00;95656.41;5049772;28;20235;-80
2023/09/16 06:21:09;;;;;;;31.77;19.67;;;;;;;19.11;100.00;95653.84;5067574;28;20239;-81
2023/09/16 06:23:34;;;;;;;32.90;19.70;;;;;;;19.20;100.00;95650.59;5039982;28;20232;-81
2023/09/16 06:26:00;;;;;;;35.20;19.97;;;;;;;19.19;100.00;95648.19;5072741;28;20241;-81
2023/09/16 06:28:26;;;;;;;28.80;19.30;;;;;;;19.39;100.00;95643.34;5055120;28;20316;-82
2023/09/16 06:30:51;;;;;;;33.33;19.70;;;;;;;19.33;100.00;95634.44;5065498;28;20282;-81
2023/09/16 06:33:17;;;;;;;33.70;20.87;;;;;;;19.47;100.00;95641.09;5041943;28;20262;-81
2023/09/16 06:35:43;;;;;;;32.70;19.77;;;;;;;19.65;100.00;95639.31;5039403;28;20241;-82
2023/09/16 06:38:08;;;;;;;33.33;20.10;;;;;;;19.68;100.00;95646.81;5047648;28;20286;-80
2023/09/16 06:40:33;;;;;;;30.00;20.43;;;;;;;19.61;100.00;95654.88;5053904;28;20226;-80
2023/09/16 06:42:59;;;;;;;32.93;20.00;;;;;;;19.58;100.00;95662.53;5049809;28;20228;-81
2023/09/16 06:45:24;;;;;;;29.00;19.77;;;;;;;19.46;100.00;95657.28;5057900;28;20242;-82
2023/09/16 06:47:50;;;;;;;31.97;20.87;;;;;;;19.39;100.00;95661.91;5051706;28;20228;-85
2023/09/16 06:50:15;;;;;;;31.07;20.03;;;;;;;19.49;100.00;95667.41;5060731;28;20229;-82
2023/09/16 06:52:44;;;;;;;32.60;20.37;;;;;;;19.38;100.00;95671.72;5035517;28;20320;-81
2023/09/16 06:55:10;;;;;;;30.80;19.90;;;;;;;19.47;100.00;95680.13;5049136;28;20255;-82
2023/09/16 06:57:35;;;;;;;30.87;20.47;;;;;;;19.31;100.00;95676.34;5057835;28;20294;-80
2023/09/16 07:00:01;;;;;;;35.10;21.73;;;;;;;19.28;100.00;95676.78;5045618;28;20283;-79
2023/09/16 07:02:26;;;;;;;34.63;21.83;;;;;;;19.21;100.00;95686.75;5066667;28;20312;-81
2023/09/16 07:04:52;;;;;;;35.47;22.07;;;;;;;19.23;100.00;95683.84;5067275;28;20308;-82
2023/09/16 07:07:17;;;;;;;34.60;22.03;;;;;;;19.48;100.00;95689.72;5069324;28;20235;-84
2023/09/16 07:09:44;;;;;;;34.60;22.67;;;;;;;19.51;100.00;95683.94;5072411;28;20247;-81
2023/09/16 07:12:09;;;;;;;36.87;22.10;;;;;;;19.33;100.00;95681.41;5058810;28;20259;-81
2023/09/16 07:14:38;;;;;;;38.30;22.77;;;;;;;19.31;100.00;95673.69;5067850;28;20911;-81
2023/09/16 07:17:04;;;;;;;36.37;22.30;;;;;;;19.24;100.00;95682.81;5048391;28;21419;-81
2023/09/16 07:19:29;;;;;;;37.73;22.70;;;;;;;19.20;100.00;95687.00;5052840;28;20249;-82
2023/09/16 07:21:55;;;;;;;36.27;22.80;;;;;;;19.16;100.00;95680.50;5060916;28;20229;-81
2023/09/16 07:24:20;;;;;;;33.60;22.23;;;;;;;19.28;100.00;95684.75;5042970;28;20286;-83
2023/09/16 07:26:46;;;;;;;36.83;22.03;;;;;;;19.38;100.00;95684.19;5057073;28;20224;-82
2023/09/16 07:29:11;;;;;;;37.73;23.33;;;;;;;19.31;100.00;95686.13;5057282;28;20258;-84
2023/09/16 07:31:37;;;;;;;34.57;23.37;;;;;;;19.54;100.00;95688.75;5071488;28;20270;-83
2023/09/16 07:34:02;;;;;;;37.80;23.70;;;;;;;19.49;100.00;95688.66;5070883;28;20721;-81
2023/09/16 07:36:28;;;;;;;34.60;23.20;;;;;;;19.42;100.00;95680.00;5068314;28;20633;-79
2023/09/16 07:38:53;;;;;;;33.93;23.30;;;;;;;19.52;100.00;95674.91;5055161;28;20727;-83
2023/09/16 07:41:19;;;;;;;34.50;23.23;;;;;;;19.45;100.00;95674.25;5064967;28;20669;-82
2023/09/16 07:43:44;;;;;;;36.10;23.40;;;;;;;19.50;100.00;95661.06;5047210;28;20232;-80
2023/09/16 07:46:10;;;;;;;35.53;23.77;;;;;;;19.36;100.00;95668.50;5053590;28;20232;-81
2023/09/16 07:48:35;;;;;;;34.23;22.30;;;;;;;19.42;100.00;95675.53;5039048;28;20229;-82
2023/09/16 07:51:01;;;;;;;34.17;22.67;;;;;;;19.40;100.00;95682.91;5042760;28;20243;-81
2023/09/16 07:53:26;;;;;;;38.73;23.13;;;;;;;19.42;100.00;95688.78;5052767;28;20224;-82
2023/09/16 07:55:52;;;;;;;34.27;24.00;;;;;;;19.41;100.00;95700.47;5040220;28;20236;-81
2023/09/16 07:58:17;;;;;;;33.50;22.53;;;;;;;19.45;100.00;95700.78;5038155;28;20236;-83
2023/09/16 08:00:43;;;;;;;35.97;24.13;;;;;;;19.43;100.00;95711.66;5066136;28;20241;-81
2023/09/16 08:03:09;;;;;;;34.40;23.50;;;;;;;19.41;100.00;95712.94;5034123;28;20255;-82
2023/09/16 08:05:34;;;;;;;36.47;23.83;;;;;;;19.35;100.00;95708.50;5071041;28;20244;-80
2023/09/16 08:07:59;;;;;;;35.03;23.87;;;;;;;19.28;100.00;95692.72;5070325;28;20224;-81
2023/09/16 08:10:25;;;;;;;38.17;25.60;;;;;;;19.48;100.00;95689.72;5074385;28;20274;-80
2023/09/16 08:12:50;;;;;;;35.53;24.00;;;;;;;19.52;100.00;95685.53;5057305;28;20228;-80
2023/09/16 08:15:16;;;;;;;38.47;24.93;;;;;;;19.48;100.00;95695.03;5056534;28;20236;-79
2023/09/16 08:17:42;;;;;;;39.27;25.50;;;;;;;19.55;100.00;95682.41;5073181;28;20473;-79
2023/09/16 08:20:08;;;;;;;35.27;24.40;;;;;;;19.66;100.00;95686.88;5049071;28;20237;-80
2023/09/16 08:22:33;;;;;;;35.87;23.63;;;;;;;19.85;100.00;95682.97;5038988;28;20951;-80
2023/09/16 08:24:59;;;;;;;34.63;23.67;;;;;;;19.71;100.00;95684.31;5058723;28;20228;-80
2023/09/16 08:27:25;;;;;;;35.80;23.73;;;;;;;19.76;100.00;95687.06;5077814;28;20236;-79
2023/09/16 08:29:52;;;;;;;35.30;23.27;;;;;;;19.71;100.00;95686.97;5057158;28;20224;-80
2023/09/16 08:32:18;;;;;;;33.03;22.63;;;;;;;19.72;100.00;95685.94;5037937;28;20268;-80
2023/09/16 08:34:44;;;;;;;34.43;23.03;;;;;;;19.83;100.00;95690.38;5056528;28;20229;-77
2023/09/16 08:37:11;;;;;;;31.70;22.20;;;;;;;20.01;100.00;95692.81;5070457;28;20227;-79
2023/09/16 08:39:37;;;;;;;26.63;19.83;;;;;;;20.12;100.00;95707.09;5062802;28;20239;-80
2023/09/16 08:42:16;;;;;;;28.30;19.07;;;;;;;20.16;100.00;95709.03;5040810;28;20317;-79
2023/09/16 08:44:45;;;;;;;30.03;19.60;;;;;;;20.12;100.00;95713.25;5044129;28;20745;-84
2023/09/16 08:47:14;;;;;;;27.03;18.60;;;;;;;20.00;100.00;95707.19;5058142;28;20256;-85
2023/09/16 08:49:42;;;;;;;28.47;18.30;;;;;;;19.95;100.00;95723.03;5055355;28;20952;-84
2023/09/16 08:52:09;;;;;;;26.53;17.70;;;;;;;20.07;100.00;95721.13;5055917;28;20744;-83
2023/09/16 08:54:35;;;;;;;26.47;18.00;;;;;;;20.12;100.00;95729.19;5040998;28;20221;-85
2023/09/16 08:57:00;;;;;;;30.60;17.87;;;;;;;19.99;100.00;95726.81;5068039;28;20228;-83
2023/09/16 08:59:26;;;;;;;28.47;18.47;;;;;;;20.03;100.00;95730.63;5068839;28;20227;-83
2023/09/16 09:01:51;;;;;;;28.37;18.83;;;;;;;19.98;100.00;95735.84;5056917;28;20229;-83
2023/09/16 09:04:17;;;;;;;29.20;18.87;;;;;;;19.89;100.00;95737.28;5062734;28;20233;-83
2023/09/16 09:06:43;;;;;;;26.20;18.93;;;;;;;20.06;100.00;95738.09;5056195;28;20250;-83
2023/09/16 09:09:08;;;;;;;29.23;19.63;;;;;;;20.06;100.00;95732.78;5055587;28;20271;-85
2023/09/16 09:11:34;;;;;;;27.67;19.13;;;;;;;20.28;100.00;95732.13;5050858;28;20232;-84
2023/09/16 09:13:59;;;;;;;30.07;18.97;;;;;;;20.43;100.00;95732.41;5037129;28;20665;-87
2023/09/16 09:16:25;;;;;;;31.67;18.97;;;;;;;20.70;100.00;95731.53;5057152;28;20233;-85
2023/09/16 09:18:51;;;;;;;25.77;18.53;;;;;;;20.90;100.00;95722.25;5066745;28;20216;-83
2023/09/16 09:21:16;;;;;;;22.53;17.07;;;;;;;21.05;100.00;95719.81;5042085;28;20233;-84
2023/09/16 09:23:42;;;;;;;27.60;17.67;;;;;;;21.18;100.00;95722.97;5035307;28;20317;-85
2023/09/16 09:26:07;;;;;;;30.43;19.23;;;;;;;21.12;100.00;95723.13;5056060;28;20327;-84
2023/09/16 09:28:33;;;;;;;31.77;21.80;;;;;;;21.11;100.00;95721.53;5058055;28;20669;-85
2023/09/16 09:30:58;;;;;;;30.13;21.20;;;;;;;21.39;100.00;95718.69;5058811;28;20236;-84
2023/09/16 09:33:25;;;;;;;30.02;18.42;;;;;;;21.13;100.00;95717.56;5054554;28;20231;-85
2023/09/16 09:36:09;;;;;;;24.73;17.73;;;;;;;21.18;100.00;95714.97;5052858;28;20243;-86
2023/09/16 09:38:38;;;;;;;24.33;17.07;;;;;;;21.20;100.00;95715.53;5066662;28;20293;-85
2023/09/16 09:41:03;;;;;;;22.13;16.03;;;;;;;21.12;100.00;95707.94;5050680;28;20264;-86
2023/09/16 09:43:30;;;;;;;21.93;15.30;;;;;;;21.32;100.00;95699.44;5040170;28;20453;-86
2023/09/16 09:45:55;;;;;;;22.57;14.87;;;;;;;21.59;100.00;95702.94;5051554;28;20236;-85
2023/09/16 09:48:21;;;;;;;16.67;12.43;;;;;;;21.88;98.20;95699.03;5033978;28;20239;-85
2023/09/16 09:50:46;;;;;;;16.73;12.20;;;;;;;21.97;94.41;95692.19;5048681;28;20242;-85
2023/09/16 09:53:11;;;;;;;18.77;12.30;;;;;;;22.08;95.95;95693.13;5055288;28;20225;-85
2023/09/16 09:55:37;;;;;;;16.35;12.32;;;;;;;22.02;97.45;95694.13;5079622;28;20233;-84
2023/09/16 09:58:03;;;;;;;17.40;12.63;;;;;;;22.08;95.11;95696.59;5072457;28;20232;-86
2023/09/16 10:00:28;;;;;;;16.58;11.88;;;;;;;22.14;95.91;95700.09;5056825;28;20224;-85
2023/09/16 10:02:54;;;;;;;19.00;10.95;;;;;;;22.30;93.93;95698.41;5047620;28;20625;-86
2023/09/16 10:05:21;;;;;;;17.55;11.48;;;;;;;22.09;95.19;95692.06;5066206;28;21017;-85
2023/09/16 10:07:47;;;;;;;19.50;11.90;;;;;;;22.14;94.50;95695.56;5054244;28;20217;-86
2023/09/16 10:10:31;;;;;;;15.10;11.38;;;;;;;22.35;94.30;95691.25;5040668;28;20224;-84
2023/09/16 10:12:57;;;;;;;10.77;8.10;;;;;;;22.51;86.78;95694.84;5040472;28;20228;-85
2023/09/16 10:15:29;;;;;;;14.07;9.00;;;;;;;22.67;87.72;95693.91;5064554;28;20225;-84
2023/09/16 10:17:55;;;;;;;15.98;9.80;;;;;;;22.77;88.86;95689.47;5064997;28;20251;-84
2023/09/16 10:20:21;;;;;;;12.95;9.40;;;;;;;22.66;87.23;95684.31;5050537;28;20266;-85
2023/09/16 10:22:47;;;;;;;13.35;10.02;;;;;;;22.55;88.99;95686.06;5023460;28;20657;-84
2023/09/16 10:25:12;;;;;;;14.07;10.60;;;;;;;22.49;90.41;95675.63;5074466;28;20233;-86
2023/09/16 10:27:57;;;;;;;11.63;9.20;;;;;;;22.53;87.55;95687.38;5069562;28;20236;-85
2023/09/16 10:30:23;;;;;;;14.93;10.23;;;;;;;22.75;90.91;95680.91;5037939;28;20781;-85
2023/09/16 10:32:49;;;;;;;14.13;9.48;;;;;;;23.01;89.33;95683.75;5042408;28;20221;-84
2023/09/16 10:35:14;;;;;;;14.68;9.75;;;;;;;23.20;86.17;95676.91;5055455;28;20282;-84
2023/09/16 10:37:40;;;;;;;14.30;9.50;;;;;;;23.29;87.49;95689.50;5050411;28;20240;-85
2023/09/16 10:40:06;;;;;;;10.77;7.90;;;;;;;23.31;84.29;95684.69;5053092;28;20225;-84
2023/09/16 10:42:33;;;;;;;12.18;8.90;;;;;;;23.28;83.09;95677.22;5035268;28;20241;-85
2023/09/16 10:44:58;;;;;;;11.10;8.82;;;;;;;23.45;84.42;95671.72;5053717;28;20216;-86
2023/09/16 10:47:24;;;;;;;13.10;8.82;;;;;;;23.61;82.63;95675.25;5055483;28;20231;-85
2023/09/16 10:49:49;;;;;;;10.95;8.23;;;;;;;23.82;81.11;95674.22;5049515;28;20233;-84
2023/09/16 10:52:18;;;;;;;11.95;7.90;;;;;;;23.86;78.73;95664.63;5047488;28;20233;-84
2023/09/16 10:55:13;;;;;;;11.05;8.23;;;;;;;24.08;81.93;95660.69;5036176;28;20221;-85
2023/09/16 10:57:42;;;;;;;13.45;9.48;;;;;;;24.21;81.20;95662.03;5063495;28;20244;-84
2023/09/16 11:00:10;;;;;;;10.52;8.57;;;;;;;24.25;79.20;95663.09;5056258;28;20240;-85
2023/09/16 11:03:02;;;;;;;13.50;8.70;;;;;;;24.28;82.74;95651.06;5062070;28;20285;-84
2023/09/16 11:05:27;;;;;;;15.38;9.30;;;;;;;24.32;82.83;95647.59;5046468;28;20319;-84
2023/09/16 11:07:54;;;;;;;14.93;9.18;;;;;;;23.69;81.01;95650.69;5066371;28;20232;-84
2023/09/16 11:10:19;;;;;;;13.50;9.93;;;;;;;23.70;82.20;95654.94;5037867;28;20221;-85